sensor_id;sensor_type;location;lat;lon;timestamp;pressure;altitude;pressure_sealevel;temperature;humidity
72942;BME280;69665;55.822;37.330;2023-12-20T00:01:00;97747.00;;;4.17;74.26
72942;BME280;69665;55.822;37.330;2023-12-20T00:03:26;97756.31;;;4.22;74.05
72942;BME280;69665;55.822;37.330;2023-12-20T00:05:52;97770.56;;;4.34;74.14
72942;BME280;69665;55.822;37.330;2023-12-20T00:08:17;97782.44;;;4.41;74.16
72942;BME280;69665;55.822;37.330;2023-12-20T00:10:43;97797.78;;;4.47;74.83
72942;BME280;69665;55.822;37.330;2023-12-20T00:13:10;97788.72;;;4.56;74.83
72942;BME280;69665;55.822;37.330;2023-12-20T00:15:35;97758.44;;;4.53;75.09
72942;BME280;69665;55.822;37.330;2023-12-20T00:18:01;97774.88;;;4.74;74.66
72942;BME280;69665;55.822;37.330;2023-12-20T00:20:27;97777.84;;;4.85;74.87
72942;BME280;69665;55.822;37.330;2023-12-20T00:22:56;97799.22;;;5.12;74.62
72942;BME280;69665;55.822;37.330;2023-12-20T00:25:24;97776.59;;;5.13;74.83
72942;BME280;69665;55.822;37.330;2023-12-20T00:27:50;97797.47;;;5.31;74.45
72942;BME280;69665;55.822;37.330;2023-12-20T00:30:16;97803.03;;;5.42;74.50
72942;BME280;69665;55.822;37.330;2023-12-20T00:32:42;97797.50;;;5.49;74.93
72942;BME280;69665;55.822;37.330;2023-12-20T00:35:14;97812.88;;;5.55;74.58
72942;BME280;69665;55.822;37.330;2023-12-20T00:37:40;97806.66;;;5.57;74.32
72942;BME280;69665;55.822;37.330;2023-12-20T00:40:06;97794.13;;;5.46;74.52
72942;BME280;69665;55.822;37.330;2023-12-20T00:42:32;97808.50;;;5.55;74.51
72942;BME280;69665;55.822;37.330;2023-12-20T00:44:59;97808.78;;;5.68;73.94
72942;BME280;69665;55.822;37.330;2023-12-20T00:47:25;97808.47;;;5.74;74.11
72942;BME280;69665;55.822;37.330;2023-12-20T00:49:50;97789.72;;;5.66;73.94
72942;BME280;69665;55.822;37.330;2023-12-20T00:52:16;97788.09;;;5.63;73.92
72942;BME280;69665;55.822;37.330;2023-12-20T00:54:45;97803.50;;;5.69;73.64
72942;BME280;69665;55.822;37.330;2023-12-20T00:57:11;97795.38;;;5.57;74.00
72942;BME280;69665;55.822;37.330;2023-12-20T00:59:36;97778.19;;;5.34;73.70
72942;BME280;69665;55.822;37.330;2023-12-20T01:02:02;97783.91;;;5.23;73.59
72942;BME280;69665;55.822;37.330;2023-12-20T01:04:28;97775.69;;;5.14;73.29
72942;BME280;69665;55.822;37.330;2023-12-20T01:06:54;97776.22;;;5.01;73.57
72942;BME280;69665;55.822;37.330;2023-12-20T01:09:19;97766.25;;;4.92;73.30
72942;BME280;69665;55.822;37.330;2023-12-20T01:11:49;97775.59;;;4.96;73.42
72942;BME280;69665;55.822;37.330;2023-12-20T01:14:14;97771.28;;;4.95;74.09
72942;BME280;69665;55.822;37.330;2023-12-20T01:16:40;97748.81;;;4.74;73.70
72942;BME280;69665;55.822;37.330;2023-12-20T01:19:06;97749.31;;;4.82;73.74
72942;BME280;69665;55.822;37.330;2023-12-20T01:21:32;97764.47;;;4.93;73.81
72942;BME280;69665;55.822;37.330;2023-12-20T01:23:57;97760.44;;;4.86;74.30
72942;BME280;69665;55.822;37.330;2023-12-20T01:26:23;97748.59;;;4.78;73.98
72942;BME280;69665;55.822;37.330;2023-12-20T01:28:49;97775.38;;;5.01;73.93
72942;BME280;69665;55.822;37.330;2023-12-20T01:31:15;97749.81;;;4.90;74.34
72942;BME280;69665;55.822;37.330;2023-12-20T01:33:40;97736.97;;;4.86;74.02
72942;BME280;69665;55.822;37.330;2023-12-20T01:36:06;97752.28;;;4.93;74.28
72942;BME280;69665;55.822;37.330;2023-12-20T01:38:32;97754.97;;;4.92;74.48
72942;BME280;69665;55.822;37.330;2023-12-20T01:40:57;97734.09;;;4.92;74.24
72942;BME280;69665;55.822;37.330;2023-12-20T01:43:23;97750.22;;;5.19;74.55
72942;BME280;69665;55.822;37.330;2023-12-20T01:45:49;97725.41;;;5.10;74.56
72942;BME280;69665;55.822;37.330;2023-12-20T01:48:15;97716.09;;;5.04;73.77
72942;BME280;69665;55.822;37.330;2023-12-20T01:50:42;97738.94;;;4.99;73.80
72942;BME280;69665;55.822;37.330;2023-12-20T01:53:10;97745.66;;;4.86;73.42
72942;BME280;69665;55.822;37.330;2023-12-20T01:55:40;97721.81;;;4.75;73.73
72942;BME280;69665;55.822;37.330;2023-12-20T01:58:07;97731.56;;;4.90;74.21
72942;BME280;69665;55.822;37.330;2023-12-20T02:00:35;97758.34;;;5.13;74.28
72942;BME280;69665;55.822;37.330;2023-12-20T02:03:02;97699.81;;;4.99;74.20
72942;BME280;69665;55.822;37.330;2023-12-20T02:05:33;97732.84;;;5.36;73.84
72942;BME280;69665;55.822;37.330;2023-12-20T02:07:59;97733.47;;;5.41;74.24
72942;BME280;69665;55.822;37.330;2023-12-20T02:10:26;97708.38;;;5.39;73.72
72942;BME280;69665;55.822;37.330;2023-12-20T02:12:52;97686.13;;;5.13;73.65
72942;BME280;69665;55.822;37.330;2023-12-20T02:15:18;97705.47;;;5.09;73.64
72942;BME280;69665;55.822;37.330;2023-12-20T02:17:45;97709.00;;;4.89;73.97
72942;BME280;69665;55.822;37.330;2023-12-20T02:20:12;97704.34;;;4.77;73.75
72942;BME280;69665;55.822;37.330;2023-12-20T02:22:38;97740.00;;;4.95;73.78
72942;BME280;69665;55.822;37.330;2023-12-20T02:25:03;97703.94;;;4.86;73.94
72942;BME280;69665;55.822;37.330;2023-12-20T02:27:30;97727.09;;;5.11;74.54
72942;BME280;69665;55.822;37.330;2023-12-20T02:29:56;97718.47;;;5.28;74.14
72942;BME280;69665;55.822;37.330;2023-12-20T02:32:24;97698.06;;;5.19;73.98
72942;BME280;69665;55.822;37.330;2023-12-20T02:34:52;97737.16;;;5.55;73.54
72942;BME280;69665;55.822;37.330;2023-12-20T02:37:18;97710.69;;;5.45;73.68
72942;BME280;69665;55.822;37.330;2023-12-20T02:39:44;97729.19;;;5.58;73.65
72942;BME280;69665;55.822;37.330;2023-12-20T02:42:10;97706.75;;;5.54;73.50
72942;BME280;69665;55.822;37.330;2023-12-20T02:44:36;97724.59;;;5.63;73.02
72942;BME280;69665;55.822;37.330;2023-12-20T02:47:02;97675.72;;;5.30;73.26
72942;BME280;69665;55.822;37.330;2023-12-20T02:49:28;97736.38;;;5.71;73.24
72942;BME280;69665;55.822;37.330;2023-12-20T02:51:54;97732.06;;;5.70;73.21
72942;BME280;69665;55.822;37.330;2023-12-20T02:54:19;97693.63;;;5.55;72.86
72942;BME280;69665;55.822;37.330;2023-12-20T02:56:45;97711.19;;;5.70;73.02
72942;BME280;69665;55.822;37.330;2023-12-20T02:59:11;97715.91;;;5.79;72.81
72942;BME280;69665;55.822;37.330;2023-12-20T03:01:42;97708.94;;;5.80;72.51
72942;BME280;69665;55.822;37.330;2023-12-20T03:04:08;97679.91;;;5.69;72.75
72942;BME280;69665;55.822;37.330;2023-12-20T03:06:34;97690.88;;;5.75;72.64
72942;BME280;69665;55.822;37.330;2023-12-20T03:09:00;97706.25;;;5.82;72.72
72942;BME280;69665;55.822;37.330;2023-12-20T03:11:28;97694.66;;;5.70;72.72
72942;BME280;69665;55.822;37.330;2023-12-20T03:13:55;97707.94;;;5.65;72.90
72942;BME280;69665;55.822;37.330;2023-12-20T03:16:21;97720.59;;;5.73;72.79
72942;BME280;69665;55.822;37.330;2023-12-20T03:18:46;97705.41;;;5.64;72.80
72942;BME280;69665;55.822;37.330;2023-12-20T03:21:12;97704.84;;;5.57;72.61
72942;BME280;69665;55.822;37.330;2023-12-20T03:23:38;97722.69;;;5.66;72.48
72942;BME280;69665;55.822;37.330;2023-12-20T03:26:07;97715.78;;;5.65;72.54
72942;BME280;69665;55.822;37.330;2023-12-20T03:28:33;97691.94;;;5.54;72.71
72942;BME280;69665;55.822;37.330;2023-12-20T03:30:59;97716.53;;;5.67;72.69
72942;BME280;69665;55.822;37.330;2023-12-20T03:33:24;97706.88;;;5.69;72.24
72942;BME280;69665;55.822;37.330;2023-12-20T03:35:50;97711.84;;;5.74;72.59
72942;BME280;69665;55.822;37.330;2023-12-20T03:38:16;97704.72;;;5.77;72.49
72942;BME280;69665;55.822;37.330;2023-12-20T03:40:41;97721.44;;;5.92;72.31
72942;BME280;69665;55.822;37.330;2023-12-20T03:43:07;97711.81;;;5.93;72.73
72942;BME280;69665;55.822;37.330;2023-12-20T03:45:33;97695.81;;;5.82;72.44
72942;BME280;69665;55.822;37.330;2023-12-20T03:47:59;97715.34;;;5.92;72.12
72942;BME280;69665;55.822;37.330;2023-12-20T03:50:25;97679.84;;;5.70;72.45
72942;BME280;69665;55.822;37.330;2023-12-20T03:52:51;97722.47;;;5.88;72.23
72942;BME280;69665;55.822;37.330;2023-12-20T03:55:17;97709.16;;;5.75;72.29
72942;BME280;69665;55.822;37.330;2023-12-20T03:57:43;97721.00;;;5.83;72.44
72942;BME280;69665;55.822;37.330;2023-12-20T04:00:10;97718.69;;;5.76;72.24
72942;BME280;69665;55.822;37.330;2023-12-20T04:02:38;97709.41;;;5.71;72.71
72942;BME280;69665;55.822;37.330;2023-12-20T04:05:05;97702.94;;;5.61;72.63
72942;BME280;69665;55.822;37.330;2023-12-20T04:07:32;97724.75;;;5.77;72.60
72942;BME280;69665;55.822;37.330;2023-12-20T04:09:57;97728.97;;;5.79;72.22
72942;BME280;69665;55.822;37.330;2023-12-20T04:12:23;97735.91;;;5.80;72.48
72942;BME280;69665;55.822;37.330;2023-12-20T04:14:49;97699.34;;;5.63;72.41
72942;BME280;69665;55.822;37.330;2023-12-20T04:17:15;97709.56;;;5.68;72.77
72942;BME280;69665;55.822;37.330;2023-12-20T04:19:42;97705.63;;;5.59;72.72
72942;BME280;69665;55.822;37.330;2023-12-20T04:22:08;97730.97;;;5.74;72.60
72942;BME280;69665;55.822;37.330;2023-12-20T04:24:34;97734.56;;;5.72;72.57
72942;BME280;69665;55.822;37.330;2023-12-20T04:26:59;97743.19;;;5.74;72.46
72942;BME280;69665;55.822;37.330;2023-12-20T04:29:25;97732.06;;;5.70;72.63
72942;BME280;69665;55.822;37.330;2023-12-20T04:31:51;97742.59;;;5.69;72.46
72942;BME280;69665;55.822;37.330;2023-12-20T04:34:17;97722.34;;;5.55;72.40
72942;BME280;69665;55.822;37.330;2023-12-20T04:36:43;97726.50;;;5.59;72.27
72942;BME280;69665;55.822;37.330;2023-12-20T04:39:11;97747.19;;;5.64;72.30
72942;BME280;69665;55.822;37.330;2023-12-20T04:41:37;97753.31;;;5.63;72.30
72942;BME280;69665;55.822;37.330;2023-12-20T04:44:02;97762.78;;;5.65;72.41
72942;BME280;69665;55.822;37.330;2023-12-20T04:46:28;97742.41;;;5.55;72.30
72942;BME280;69665;55.822;37.330;2023-12-20T04:48:54;97730.25;;;5.54;72.40
72942;BME280;69665;55.822;37.330;2023-12-20T04:51:19;97746.13;;;5.68;72.20
72942;BME280;69665;55.822;37.330;2023-12-20T04:53:45;97733.66;;;5.56;72.30
72942;BME280;69665;55.822;37.330;2023-12-20T04:56:11;97748.66;;;5.69;71.97
72942;BME280;69665;55.822;37.330;2023-12-20T04:58:37;97740.97;;;5.66;72.23
72942;BME280;69665;55.822;37.330;2023-12-20T05:01:05;97737.44;;;5.67;71.85
72942;BME280;69665;55.822;37.330;2023-12-20T05:03:31;97725.38;;;5.65;72.34
72942;BME280;69665;55.822;37.330;2023-12-20T05:05:57;97723.69;;;5.64;71.93
72942;BME280;69665;55.822;37.330;2023-12-20T05:08:22;97715.16;;;5.60;71.85
72942;BME280;69665;55.822;37.330;2023-12-20T05:10:48;97721.16;;;5.62;71.76
72942;BME280;69665;55.822;37.330;2023-12-20T05:13:17;97720.22;;;5.63;71.95
72942;BME280;69665;55.822;37.330;2023-12-20T05:15:42;97738.66;;;5.77;72.03
72942;BME280;69665;55.822;37.330;2023-12-20T05:18:08;97726.84;;;5.70;72.16
72942;BME280;69665;55.822;37.330;2023-12-20T05:20:34;97742.97;;;5.78;72.09
72942;BME280;69665;55.822;37.330;2023-12-20T05:22:59;97751.09;;;5.91;72.06
72942;BME280;69665;55.822;37.330;2023-12-20T05:25:25;97758.78;;;5.94;71.96
72942;BME280;69665;55.822;37.330;2023-12-20T05:27:51;97743.44;;;5.87;72.16
72942;BME280;69665;55.822;37.330;2023-12-20T05:30:16;97764.84;;;5.95;72.32
72942;BME280;69665;55.822;37.330;2023-12-20T05:32:42;97764.25;;;5.88;71.76
72942;BME280;69665;55.822;37.330;2023-12-20T05:35:07;97775.16;;;5.79;72.07
72942;BME280;69665;55.822;37.330;2023-12-20T05:37:33;97765.09;;;5.71;71.95
72942;BME280;69665;55.822;37.330;2023-12-20T05:39:59;97766.84;;;5.71;72.01
72942;BME280;69665;55.822;37.330;2023-12-20T05:42:25;97759.94;;;5.70;72.10
72942;BME280;69665;55.822;37.330;2023-12-20T05:44:50;97744.88;;;5.58;72.15
72942;BME280;69665;55.822;37.330;2023-12-20T05:47:16;97769.38;;;5.72;72.30
72942;BME280;69665;55.822;37.330;2023-12-20T05:49:43;97778.38;;;5.67;72.34
72942;BME280;69665;55.822;37.330;2023-12-20T05:52:09;97772.59;;;5.60;72.16
72942;BME280;69665;55.822;37.330;2023-12-20T05:54:34;97767.38;;;5.60;71.88
72942;BME280;69665;55.822;37.330;2023-12-20T05:57:00;97762.66;;;5.50;72.26
72942;BME280;69665;55.822;37.330;2023-12-20T05:59:26;97744.91;;;5.20;71.77
72942;BME280;69665;55.822;37.330;2023-12-20T06:01:52;97769.94;;;5.24;72.11
72942;BME280;69665;55.822;37.330;2023-12-20T06:04:17;97746.06;;;5.15;71.98
72942;BME280;69665;55.822;37.330;2023-12-20T06:06:43;97754.53;;;5.20;72.75
72942;BME280;69665;55.822;37.330;2023-12-20T06:09:10;97765.50;;;5.26;72.46
72942;BME280;69665;55.822;37.330;2023-12-20T06:11:35;97770.59;;;5.29;72.22
72942;BME280;69665;55.822;37.330;2023-12-20T06:14:01;97778.19;;;5.34;72.11
72942;BME280;69665;55.822;37.330;2023-12-20T06:16:27;97783.28;;;5.37;73.05
72942;BME280;69665;55.822;37.330;2023-12-20T06:18:52;97783.28;;;5.37;72.11
72942;BME280;69665;55.822;37.330;2023-12-20T06:21:18;97786.66;;;5.39;72.39
72942;BME280;69665;55.822;37.330;2023-12-20T06:23:44;97769.47;;;5.35;72.12
72942;BME280;69665;55.822;37.330;2023-12-20T06:26:10;97781.69;;;5.52;72.15
72942;BME280;69665;55.822;37.330;2023-12-20T06:28:35;97782.19;;;5.60;72.20
72942;BME280;69665;55.822;37.330;2023-12-20T06:31:02;97784.88;;;5.75;71.89
72942;BME280;69665;55.822;37.330;2023-12-20T06:33:29;97777.47;;;5.85;71.76
72942;BME280;69665;55.822;37.330;2023-12-20T06:35:56;97787.50;;;5.94;71.96
72942;BME280;69665;55.822;37.330;2023-12-20T06:38:22;97780.81;;;5.89;72.03
72942;BME280;69665;55.822;37.330;2023-12-20T06:40:48;97789.88;;;5.99;71.74
72942;BME280;69665;55.822;37.330;2023-12-20T06:43:14;97764.13;;;5.91;71.37
72942;BME280;69665;55.822;37.330;2023-12-20T06:45:39;97782.34;;;6.10;71.50
72942;BME280;69665;55.822;37.330;2023-12-20T06:48:06;97772.97;;;6.06;71.58
72942;BME280;69665;55.822;37.330;2023-12-20T06:50:32;97774.13;;;6.18;71.74
72942;BME280;69665;55.822;37.330;2023-12-20T06:52:57;97785.28;;;6.21;71.49
72942;BME280;69665;55.822;37.330;2023-12-20T06:55:23;97770.59;;;6.19;71.86
72942;BME280;69665;55.822;37.330;2023-12-20T06:57:49;97762.66;;;6.03;71.48
72942;BME280;69665;55.822;37.330;2023-12-20T07:00:17;97776.97;;;6.13;71.65
72942;BME280;69665;55.822;37.330;2023-12-20T07:02:45;97773.59;;;6.11;71.06
72942;BME280;69665;55.822;37.330;2023-12-20T07:05:16;97760.91;;;6.03;71.34
72942;BME280;69665;55.822;37.330;2023-12-20T07:07:42;97752.22;;;6.03;71.65
72942;BME280;69665;55.822;37.330;2023-12-20T07:10:08;97760.97;;;6.02;71.34
72942;BME280;69665;55.822;37.330;2023-12-20T07:12:34;97785.44;;;6.18;71.48
72942;BME280;69665;55.822;37.330;2023-12-20T07:14:59;97765.91;;;6.08;71.48
72942;BME280;69665;55.822;37.330;2023-12-20T07:17:25;97790.25;;;6.26;70.97
72942;BME280;69665;55.822;37.330;2023-12-20T07:19:51;97760.38;;;6.14;71.01
72942;BME280;69665;55.822;37.330;2023-12-20T07:22:16;97761.38;;;6.11;71.04
72942;BME280;69665;55.822;37.330;2023-12-20T07:24:42;97792.03;;;6.25;71.09
72942;BME280;69665;55.822;37.330;2023-12-20T07:27:07;97787.72;;;6.24;71.42
72942;BME280;69665;55.822;37.330;2023-12-20T07:29:33;97787.06;;;6.21;71.42
72942;BME280;69665;55.822;37.330;2023-12-20T07:31:59;97773.50;;;6.12;71.35
72942;BME280;69665;55.822;37.330;2023-12-20T07:34:24;97804.94;;;6.28;71.33
72942;BME280;69665;55.822;37.330;2023-12-20T07:36:50;97801.72;;;6.23;71.16
72942;BME280;69665;55.822;37.330;2023-12-20T07:39:16;97811.22;;;6.24;71.17
72942;BME280;69665;55.822;37.330;2023-12-20T07:41:41;97819.25;;;6.21;70.80
72942;BME280;69665;55.822;37.330;2023-12-20T07:44:07;97804.31;;;6.06;70.76
72942;BME280;69665;55.822;37.330;2023-12-20T07:46:33;97818.72;;;6.15;70.88
72942;BME280;69665;55.822;37.330;2023-12-20T07:48:59;97815.72;;;6.22;71.12
72942;BME280;69665;55.822;37.330;2023-12-20T07:51:24;97828.00;;;6.37;70.97
72942;BME280;69665;55.822;37.330;2023-12-20T07:53:51;97826.03;;;6.42;70.71
72942;BME280;69665;55.822;37.330;2023-12-20T07:56:19;97829.31;;;6.46;70.37
72942;BME280;69665;55.822;37.330;2023-12-20T07:58:45;97829.00;;;6.52;71.50
72942;BME280;69665;55.822;37.330;2023-12-20T08:01:12;97824.69;;;6.68;70.57
72942;BME280;69665;55.822;37.330;2023-12-20T08:03:38;97814.84;;;6.73;70.26
72942;BME280;69665;55.822;37.330;2023-12-20T08:06:04;97814.50;;;6.79;70.41
72942;BME280;69665;55.822;37.330;2023-12-20T08:08:30;97834.22;;;7.02;69.92
72942;BME280;69665;55.822;37.330;2023-12-20T08:10:56;97828.66;;;7.08;70.23
72942;BME280;69665;55.822;37.330;2023-12-20T08:13:26;97830.88;;;7.16;70.58
72942;BME280;69665;55.822;37.330;2023-12-20T08:15:52;97824.34;;;7.07;69.22
72942;BME280;69665;55.822;37.330;2023-12-20T08:18:18;97824.81;;;7.15;69.31
72942;BME280;69665;55.822;37.330;2023-12-20T08:20:44;97831.72;;;7.17;69.71
72942;BME280;69665;55.822;37.330;2023-12-20T08:23:10;97830.97;;;7.14;69.02
72942;BME280;69665;55.822;37.330;2023-12-20T08:25:35;97840.19;;;7.22;69.65
72942;BME280;69665;55.822;37.330;2023-12-20T08:28:02;97825.31;;;7.22;69.38
72942;BME280;69665;55.822;37.330;2023-12-20T08:30:28;97813.94;;;7.23;69.11
72942;BME280;69665;55.822;37.330;2023-12-20T08:32:55;97831.25;;;7.41;69.41
72942;BME280;69665;55.822;37.330;2023-12-20T08:35:21;97823.22;;;7.44;69.27
72942;BME280;69665;55.822;37.330;2023-12-20T08:37:47;97819.75;;;7.44;68.70
72942;BME280;69665;55.822;37.330;2023-12-20T08:40:12;97815.47;;;7.43;68.30
72942;BME280;69665;55.822;37.330;2023-12-20T08:42:39;97826.84;;;7.42;68.59
72942;BME280;69665;55.822;37.330;2023-12-20T08:45:05;97823.91;;;7.48;68.73
72942;BME280;69665;55.822;37.330;2023-12-20T08:47:31;97822.63;;;7.55;68.83
72942;BME280;69665;55.822;37.330;2023-12-20T08:49:56;97820.84;;;7.56;68.78
72942;BME280;69665;55.822;37.330;2023-12-20T08:52:25;97802.19;;;7.46;68.70
72942;BME280;69665;55.822;37.330;2023-12-20T08:54:53;97820.84;;;7.56;68.58
72942;BME280;69665;55.822;37.330;2023-12-20T08:57:19;97814.84;;;7.54;68.78
72942;BME280;69665;55.822;37.330;2023-12-20T08:59:47;97790.88;;;7.45;68.81
72942;BME280;69665;55.822;37.330;2023-12-20T09:02:13;97793.66;;;7.42;68.29
72942;BME280;69665;55.822;37.330;2023-12-20T09:04:40;97803.28;;;7.42;68.42
72942;BME280;69665;55.822;37.330;2023-12-20T09:07:05;97813.59;;;7.45;68.49
72942;BME280;69665;55.822;37.330;2023-12-20T09:09:31;97811.22;;;7.40;68.79
72942;BME280;69665;55.822;37.330;2023-12-20T09:11:57;97811.22;;;7.40;68.79
72942;BME280;69665;55.822;37.330;2023-12-20T09:14:23;97804.53;;;7.35;69.10
72942;BME280;69665;55.822;37.330;2023-12-20T09:16:49;97791.28;;;7.22;68.56
72942;BME280;69665;55.822;37.330;2023-12-20T09:19:17;97802.84;;;7.34;68.72
72942;BME280;69665;55.822;37.330;2023-12-20T09:21:43;97780.97;;;7.19;68.58
72942;BME280;69665;55.822;37.330;2023-12-20T09:24:09;97810.31;;;7.26;68.30
72942;BME280;69665;55.822;37.330;2023-12-20T09:26:35;97787.22;;;7.17;68.66
72942;BME280;69665;55.822;37.330;2023-12-20T09:29:00;97809.19;;;7.30;68.61
72942;BME280;69665;55.822;37.330;2023-12-20T09:31:26;97778.84;;;7.10;68.79
72942;BME280;69665;55.822;37.330;2023-12-20T09:33:52;97805.56;;;7.32;68.81
72942;BME280;69665;55.822;37.330;2023-12-20T09:36:18;97794.69;;;7.24;68.60
72942;BME280;69665;55.822;37.330;2023-12-20T09:38:44;97815.53;;;7.26;69.01
72942;BME280;69665;55.822;37.330;2023-12-20T09:41:09;97791.88;;;7.11;68.76
72942;BME280;69665;55.822;37.330;2023-12-20T09:43:38;97796.41;;;7.08;68.76
72942;BME280;69665;55.822;37.330;2023-12-20T09:46:06;97812.56;;;7.16;68.73
72942;BME280;69665;55.822;37.330;2023-12-20T09:48:36;97824.81;;;7.15;69.05
72942;BME280;69665;55.822;37.330;2023-12-20T09:51:02;97821.34;;;7.15;69.00
72942;BME280;69665;55.822;37.330;2023-12-20T09:53:29;97805.63;;;7.15;68.66
72942;BME280;69665;55.822;37.330;2023-12-20T09:55:59;97810.78;;;7.17;68.53
72942;BME280;69665;55.822;37.330;2023-12-20T09:58:28;97818.56;;;7.18;68.36
72942;BME280;69665;55.822;37.330;2023-12-20T10:00:55;97786.03;;;7.06;68.60
72942;BME280;69665;55.822;37.330;2023-12-20T10:03:25;97790.50;;;7.04;68.31
72942;BME280;69665;55.822;37.330;2023-12-20T10:05:54;97808.94;;;7.19;68.35
72942;BME280;69665;55.822;37.330;2023-12-20T10:08:22;97811.47;;;7.20;68.80
72942;BME280;69665;55.822;37.330;2023-12-20T10:10:48;97805.63;;;7.15;68.43
72942;BME280;69665;55.822;37.330;2023-12-20T10:13:15;97810.19;;;7.11;69.06
72942;BME280;69665;55.822;37.330;2023-12-20T10:15:40;97763.63;;;6.85;69.15
72942;BME280;69665;55.822;37.330;2023-12-20T10:18:06;97766.25;;;6.85;68.75
72942;BME280;69665;55.822;37.330;2023-12-20T10:20:32;97797.41;;;7.05;69.12
72942;BME280;69665;55.822;37.330;2023-12-20T10:22:59;97793.72;;;7.09;68.94
72942;BME280;69665;55.822;37.330;2023-12-20T10:25:26;97811.47;;;7.20;68.54
72942;BME280;69665;55.822;37.330;2023-12-20T10:28:11;97810.78;;;7.17;68.27
72942;BME280;69665;55.822;37.330;2023-12-20T10:30:39;97815.84;;;7.20;68.53
72942;BME280;69665;55.822;37.330;2023-12-20T10:33:08;97814.09;;;7.20;68.62
72942;BME280;69665;55.822;37.330;2023-12-20T10:35:35;97818.25;;;7.24;67.64
72942;BME280;69665;55.822;37.330;2023-12-20T10:38:03;97808.94;;;7.19;68.74
72942;BME280;69665;55.822;37.330;2023-12-20T10:40:30;97817.38;;;7.24;68.23
72942;BME280;69665;55.822;37.330;2023-12-20T10:42:58;97819.16;;;7.23;68.32
72942;BME280;69665;55.822;37.330;2023-12-20T10:45:25;97809.63;;;7.22;68.31
72942;BME280;69665;55.822;37.330;2023-12-20T10:47:51;97795.16;;;7.15;67.93
72942;BME280;69665;55.822;37.330;2023-12-20T10:50:18;97797.88;;;7.13;68.16
72942;BME280;69665;55.822;37.330;2023-12-20T10:52:45;97780.47;;;6.97;68.04
72942;BME280;69665;55.822;37.330;2023-12-20T10:55:12;97809.56;;;7.06;68.39
72942;BME280;69665;55.822;37.330;2023-12-20T10:57:38;97787.31;;;6.99;68.50
72942;BME280;69665;55.822;37.330;2023-12-20T11:00:06;97807.81;;;7.07;68.92
72942;BME280;69665;55.822;37.330;2023-12-20T11:02:39;97814.72;;;7.08;68.40
72942;BME280;69665;55.822;37.330;2023-12-20T11:05:19;97814.72;;;7.08;67.99
72942;BME280;69665;55.822;37.330;2023-12-20T11:07:58;97797.69;;;7.01;67.79
72942;BME280;69665;55.822;37.330;2023-12-20T11:13:12;97803.69;;;7.19;68.16
72942;BME280;69665;55.822;37.330;2023-12-20T11:15:42;97770.84;;;6.97;68.15
72942;BME280;69665;55.822;37.330;2023-12-20T11:18:08;97790.34;;;7.07;68.02
72942;BME280;69665;55.822;37.330;2023-12-20T11:20:39;97783.47;;;7.05;67.66
72942;BME280;69665;55.822;37.330;2023-12-20T11:23:05;97808.69;;;7.23;67.87
72942;BME280;69665;55.822;37.330;2023-12-20T11:25:47;97813.00;;;7.24;67.71
72942;BME280;69665;55.822;37.330;2023-12-20T11:28:14;97790.69;;;7.17;67.96
72942;BME280;69665;55.822;37.330;2023-12-20T11:30:47;97811.63;;;7.33;68.06
72942;BME280;69665;55.822;37.330;2023-12-20T11:33:15;97815.00;;;7.35;68.13
72942;BME280;69665;55.822;37.330;2023-12-20T11:35:41;97806.56;;;7.30;67.95
72942;BME280;69665;55.822;37.330;2023-12-20T11:38:10;97811.22;;;7.25;67.94
72942;BME280;69665;55.822;37.330;2023-12-20T11:40:37;97781.63;;;7.07;67.58
72942;BME280;69665;55.822;37.330;2023-12-20T11:43:03;97807.94;;;7.21;68.04
72942;BME280;69665;55.822;37.330;2023-12-20T11:45:29;97814.94;;;7.21;67.84
72942;BME280;69665;55.822;37.330;2023-12-20T11:47:56;97825.56;;;7.18;67.39
72942;BME280;69665;55.822;37.330;2023-12-20T11:50:23;97821.09;;;7.20;67.90
72942;BME280;69665;55.822;37.330;2023-12-20T11:52:52;97833.34;;;7.19;67.69
72942;BME280;69665;55.822;37.330;2023-12-20T11:55:19;97805.34;;;7.04;67.57
72942;BME280;69665;55.822;37.330;2023-12-20T11:57:44;97809.09;;;7.00;67.22
72942;BME280;69665;55.822;37.330;2023-12-20T12:00:10;97822.41;;;7.11;67.59
72942;BME280;69665;55.822;37.330;2023-12-20T12:02:39;97830.97;;;7.14;67.52
72942;BME280;69665;55.822;37.330;2023-12-20T12:05:05;97813.31;;;7.18;68.18
72942;BME280;69665;55.822;37.330;2023-12-20T12:07:32;97818.16;;;7.26;67.73
72942;BME280;69665;55.822;37.330;2023-12-20T12:09:57;97797.94;;;7.12;67.80
72942;BME280;69665;55.822;37.330;2023-12-20T12:12:24;97832.72;;;7.14;68.35
72942;BME280;69665;55.822;37.330;2023-12-20T12:14:51;97830.50;;;7.06;68.04
72942;BME280;69665;55.822;37.330;2023-12-20T12:17:16;97829.25;;;6.98;68.20
72942;BME280;69665;55.822;37.330;2023-12-20T12:19:43;97825.34;;;6.89;68.41
72942;BME280;69665;55.822;37.330;2023-12-20T12:22:10;97844.88;;;6.99;68.24
72942;BME280;69665;55.822;37.330;2023-12-20T12:24:39;97838.19;;;6.94;68.24
72942;BME280;69665;55.822;37.330;2023-12-20T12:27:06;97840.94;;;6.91;68.47
72942;BME280;69665;55.822;37.330;2023-12-20T12:29:33;97817.75;;;6.67;68.36
72942;BME280;69665;55.822;37.330;2023-12-20T12:31:59;97851.81;;;6.83;68.30
72942;BME280;69665;55.822;37.330;2023-12-20T12:34:27;97859.66;;;6.83;68.60
72942;BME280;69665;55.822;37.330;2023-12-20T12:36:53;97841.75;;;6.75;68.67
72942;BME280;69665;55.822;37.330;2023-12-20T12:39:19;97869.13;;;6.86;68.68
72942;BME280;69665;55.822;37.330;2023-12-20T12:41:45;97836.00;;;6.69;68.50
72942;BME280;69665;55.822;37.330;2023-12-20T12:44:11;97855.22;;;6.68;68.76
72942;BME280;69665;55.822;37.330;2023-12-20T12:46:37;97884.19;;;6.80;68.82
72942;BME280;69665;55.822;37.330;2023-12-20T12:49:02;97890.19;;;6.82;68.77
72942;BME280;69665;55.822;37.330;2023-12-20T12:51:28;97891.03;;;6.83;68.89
72942;BME280;69665;55.822;37.330;2023-12-20T12:53:53;97843.53;;;6.58;69.36
72942;BME280;69665;55.822;37.330;2023-12-20T12:56:19;97885.97;;;6.80;69.09
72942;BME280;69665;55.822;37.330;2023-12-20T12:58:45;97883.03;;;6.86;69.68